sensor_id;sensor_type;location;lat;lon;timestamp;P1;durP1;ratioP1;P2;durP2;ratioP2
70320;SDS011;61127;55.826;37.046;2023-04-15T00:00:35;3.03;;;0.95;;
70320;SDS011;61127;55.826;37.046;2023-04-15T00:03:01;2.67;;;1.00;;
70320;SDS011;61127;55.826;37.046;2023-04-15T00:05:30;1.67;;;0.67;;
70320;SDS011;61127;55.826;37.046;2023-04-15T00:07:56;2.80;;;1.10;;
70320;SDS011;61127;55.826;37.046;2023-04-15T00:10:23;2.08;;;0.90;;
70320;SDS011;61127;55.826;37.046;2023-04-15T00:12:49;1.87;;;0.80;;
70320;SDS011;61127;55.826;37.046;2023-04-15T00:15:15;2.55;;;1.10;;
70320;SDS011;61127;55.826;37.046;2023-04-15T00:17:40;4.03;;;1.10;;
70320;SDS011;61127;55.826;37.046;2023-04-15T00:20:06;2.05;;;0.88;;
70320;SDS011;61127;55.826;37.046;2023-04-15T00:22:32;3.23;;;1.20;;
70320;SDS011;61127;55.826;37.046;2023-04-15T00:24:57;5.05;;;0.90;;
70320;SDS011;61127;55.826;37.046;2023-04-15T00:27:23;4.20;;;1.00;;
70320;SDS011;61127;55.826;37.046;2023-04-15T00:29:49;4.63;;;1.23;;
70320;SDS011;61127;55.826;37.046;2023-04-15T00:32:14;3.47;;;1.27;;
70320;SDS011;61127;55.826;37.046;2023-04-15T00:34:40;1.83;;;1.00;;
70320;SDS011;61127;55.826;37.046;2023-04-15T00:37:06;2.17;;;0.85;;
70320;SDS011;61127;55.826;37.046;2023-04-15T00:39:32;2.47;;;1.10;;
70320;SDS011;61127;55.826;37.046;2023-04-15T00:41:57;2.60;;;1.10;;
70320;SDS011;61127;55.826;37.046;2023-04-15T00:44:23;2.40;;;0.90;;
70320;SDS011;61127;55.826;37.046;2023-04-15T00:46:52;2.50;;;0.90;;
70320;SDS011;61127;55.826;37.046;2023-04-15T00:49:18;1.98;;;0.75;;
70320;SDS011;61127;55.826;37.046;2023-04-15T00:51:44;2.42;;;0.90;;
70320;SDS011;61127;55.826;37.046;2023-04-15T00:54:10;1.50;;;0.70;;
70320;SDS011;61127;55.826;37.046;2023-04-15T00:56:37;2.65;;;0.90;;
70320;SDS011;61127;55.826;37.046;2023-04-15T00:59:03;2.55;;;1.05;;
70320;SDS011;61127;55.826;37.046;2023-04-15T01:01:29;2.35;;;1.00;;
70320;SDS011;61127;55.826;37.046;2023-04-15T01:03:55;2.95;;;1.20;;
70320;SDS011;61127;55.826;37.046;2023-04-15T01:06:22;4.93;;;1.00;;
70320;SDS011;61127;55.826;37.046;2023-04-15T01:08:48;4.00;;;0.90;;
70320;SDS011;61127;55.826;37.046;2023-04-15T01:11:14;2.20;;;0.90;;
70320;SDS011;61127;55.826;37.046;2023-04-15T01:13:40;2.38;;;1.15;;
70320;SDS011;61127;55.826;37.046;2023-04-15T01:16:06;2.73;;;0.90;;
70320;SDS011;61127;55.826;37.046;2023-04-15T01:18:33;2.67;;;0.88;;
70320;SDS011;61127;55.826;37.046;2023-04-15T01:21:02;2.70;;;0.95;;
70320;SDS011;61127;55.826;37.046;2023-04-15T01:23:30;1.60;;;0.95;;
70320;SDS011;61127;55.826;37.046;2023-04-15T01:25:55;3.07;;;1.00;;
70320;SDS011;61127;55.826;37.046;2023-04-15T01:28:21;6.35;;;1.17;;
70320;SDS011;61127;55.826;37.046;2023-04-15T01:30:47;2.88;;;0.80;;
70320;SDS011;61127;55.826;37.046;2023-04-15T01:33:13;2.10;;;1.20;;
70320;SDS011;61127;55.826;37.046;2023-04-15T01:35:57;1.50;;;0.80;;
70320;SDS011;61127;55.826;37.046;2023-04-15T01:38:25;2.67;;;1.05;;
70320;SDS011;61127;55.826;37.046;2023-04-15T01:40:51;3.38;;;0.98;;
70320;SDS011;61127;55.826;37.046;2023-04-15T01:43:18;1.70;;;0.70;;
70320;SDS011;61127;55.826;37.046;2023-04-15T01:45:45;5.15;;;0.80;;
70320;SDS011;61127;55.826;37.046;2023-04-15T01:48:13;2.67;;;0.98;;
70320;SDS011;61127;55.826;37.046;2023-04-15T01:50:40;1.73;;;0.90;;
70320;SDS011;61127;55.826;37.046;2023-04-15T01:53:07;2.25;;;0.80;;
70320;SDS011;61127;55.826;37.046;2023-04-15T01:55:34;2.33;;;0.82;;
70320;SDS011;61127;55.826;37.046;2023-04-15T01:58:01;2.67;;;0.93;;
70320;SDS011;61127;55.826;37.046;2023-04-15T02:00:28;2.42;;;0.93;;
70320;SDS011;61127;55.826;37.046;2023-04-15T02:02:56;2.78;;;0.90;;
70320;SDS011;61127;55.826;37.046;2023-04-15T02:05:25;3.38;;;1.10;;
70320;SDS011;61127;55.826;37.046;2023-04-15T02:07:52;2.67;;;1.00;;
70320;SDS011;61127;55.826;37.046;2023-04-15T02:10:19;3.55;;;1.00;;
70320;SDS011;61127;55.826;37.046;2023-04-15T02:12:46;2.00;;;0.80;;
70320;SDS011;61127;55.826;37.046;2023-04-15T02:15:12;3.30;;;1.00;;
70320;SDS011;61127;55.826;37.046;2023-04-15T02:17:39;3.78;;;1.45;;
70320;SDS011;61127;55.826;37.046;2023-04-15T02:20:07;2.30;;;0.98;;
70320;SDS011;61127;55.826;37.046;2023-04-15T02:22:34;1.85;;;0.90;;
70320;SDS011;61127;55.826;37.046;2023-04-15T02:25:01;3.22;;;1.13;;
70320;SDS011;61127;55.826;37.046;2023-04-15T02:27:28;5.18;;;0.90;;
70320;SDS011;61127;55.826;37.046;2023-04-15T02:29:56;2.28;;;0.95;;
70320;SDS011;61127;55.826;37.046;2023-04-15T02:32:22;6.32;;;1.10;;
70320;SDS011;61127;55.826;37.046;2023-04-15T02:34:50;3.00;;;0.90;;
70320;SDS011;61127;55.826;37.046;2023-04-15T02:37:17;2.30;;;0.90;;
70320;SDS011;61127;55.826;37.046;2023-04-15T02:39:45;2.75;;;0.90;;
70320;SDS011;61127;55.826;37.046;2023-04-15T02:42:12;2.45;;;0.85;;
70320;SDS011;61127;55.826;37.046;2023-04-15T02:44:39;3.00;;;1.00;;
70320;SDS011;61127;55.826;37.046;2023-04-15T02:47:06;1.65;;;0.80;;
70320;SDS011;61127;55.826;37.046;2023-04-15T02:49:33;5.95;;;1.10;;
70320;SDS011;61127;55.826;37.046;2023-04-15T02:52:00;2.63;;;0.90;;
70320;SDS011;61127;55.826;37.046;2023-04-15T02:54:27;1.55;;;1.10;;
70320;SDS011;61127;55.826;37.046;2023-04-15T02:56:54;3.63;;;1.00;;
70320;SDS011;61127;55.826;37.046;2023-04-15T02:59:22;3.00;;;1.10;;
70320;SDS011;61127;55.826;37.046;2023-04-15T03:01:48;1.83;;;0.80;;
70320;SDS011;61127;55.826;37.046;2023-04-15T03:04:15;3.10;;;1.17;;
70320;SDS011;61127;55.826;37.046;2023-04-15T03:06:42;3.15;;;1.10;;
70320;SDS011;61127;55.826;37.046;2023-04-15T03:09:10;2.97;;;1.08;;
70320;SDS011;61127;55.826;37.046;2023-04-15T03:11:37;3.67;;;1.02;;
70320;SDS011;61127;55.826;37.046;2023-04-15T03:14:08;3.47;;;1.00;;
70320;SDS011;61127;55.826;37.046;2023-04-15T03:16:41;2.55;;;1.00;;
70320;SDS011;61127;55.826;37.046;2023-04-15T03:19:08;3.28;;;1.10;;
70320;SDS011;61127;55.826;37.046;2023-04-15T03:21:35;3.65;;;1.40;;
70320;SDS011;61127;55.826;37.046;2023-04-15T03:24:02;2.90;;;0.90;;
70320;SDS011;61127;55.826;37.046;2023-04-15T03:26:29;3.97;;;1.23;;
70320;SDS011;61127;55.826;37.046;2023-04-15T03:29:04;3.35;;;1.00;;
70320;SDS011;61127;55.826;37.046;2023-04-15T03:31:32;3.08;;;1.30;;
70320;SDS011;61127;55.826;37.046;2023-04-15T03:33:58;2.65;;;1.00;;
70320;SDS011;61127;55.826;37.046;2023-04-15T03:36:28;3.45;;;1.27;;
70320;SDS011;61127;55.826;37.046;2023-04-15T03:38:55;2.83;;;1.15;;
70320;SDS011;61127;55.826;37.046;2023-04-15T03:41:22;3.90;;;0.98;;
70320;SDS011;61127;55.826;37.046;2023-04-15T03:43:49;2.05;;;0.90;;
70320;SDS011;61127;55.826;37.046;2023-04-15T03:46:17;3.65;;;1.20;;
70320;SDS011;61127;55.826;37.046;2023-04-15T03:48:44;2.67;;;1.30;;
70320;SDS011;61127;55.826;37.046;2023-04-15T03:51:11;1.52;;;0.95;;
70320;SDS011;61127;55.826;37.046;2023-04-15T03:53:38;4.90;;;1.20;;
70320;SDS011;61127;55.826;37.046;2023-04-15T03:56:04;2.65;;;0.90;;
70320;SDS011;61127;55.826;37.046;2023-04-15T03:58:31;3.25;;;1.33;;
70320;SDS011;61127;55.826;37.046;2023-04-15T04:00:58;3.53;;;0.90;;
70320;SDS011;61127;55.826;37.046;2023-04-15T04:03:25;2.20;;;0.93;;
70320;SDS011;61127;55.826;37.046;2023-04-15T04:05:52;4.45;;;1.15;;
70320;SDS011;61127;55.826;37.046;2023-04-15T04:08:19;2.78;;;1.15;;
70320;SDS011;61127;55.826;37.046;2023-04-15T04:10:47;2.03;;;0.98;;
70320;SDS011;61127;55.826;37.046;2023-04-15T04:13:13;1.80;;;0.95;;
70320;SDS011;61127;55.826;37.046;2023-04-15T04:15:41;4.90;;;1.35;;
70320;SDS011;61127;55.826;37.046;2023-04-15T04:18:07;1.75;;;0.82;;
70320;SDS011;61127;55.826;37.046;2023-04-15T04:20:34;5.68;;;1.60;;
70320;SDS011;61127;55.826;37.046;2023-04-15T04:23:01;3.42;;;1.08;;
70320;SDS011;61127;55.826;37.046;2023-04-15T04:25:28;3.25;;;1.60;;
70320;SDS011;61127;55.826;37.046;2023-04-15T04:27:55;5.45;;;1.20;;
70320;SDS011;61127;55.826;37.046;2023-04-15T04:30:22;3.65;;;1.30;;
70320;SDS011;61127;55.826;37.046;2023-04-15T04:32:49;5.40;;;1.20;;
70320;SDS011;61127;55.826;37.046;2023-04-15T04:35:16;6.25;;;1.42;;
70320;SDS011;61127;55.826;37.046;2023-04-15T04:37:43;3.20;;;1.20;;
70320;SDS011;61127;55.826;37.046;2023-04-15T04:40:10;3.35;;;1.15;;
70320;SDS011;61127;55.826;37.046;2023-04-15T04:42:37;8.25;;;1.63;;
70320;SDS011;61127;55.826;37.046;2023-04-15T04:45:04;5.03;;;1.27;;
70320;SDS011;61127;55.826;37.046;2023-04-15T04:47:31;4.63;;;1.30;;
70320;SDS011;61127;55.826;37.046;2023-04-15T04:49:58;2.65;;;1.10;;
70320;SDS011;61127;55.826;37.046;2023-04-15T04:52:24;2.78;;;1.13;;
70320;SDS011;61127;55.826;37.046;2023-04-15T04:54:51;3.85;;;1.20;;
70320;SDS011;61127;55.826;37.046;2023-04-15T04:57:18;4.53;;;1.20;;
70320;SDS011;61127;55.826;37.046;2023-04-15T04:59:45;4.70;;;1.50;;
70320;SDS011;61127;55.826;37.046;2023-04-15T05:02:12;3.95;;;1.45;;
70320;SDS011;61127;55.826;37.046;2023-04-15T05:04:39;4.22;;;1.40;;
70320;SDS011;61127;55.826;37.046;2023-04-15T05:07:07;6.07;;;1.20;;
70320;SDS011;61127;55.826;37.046;2023-04-15T05:09:34;5.25;;;1.33;;
70320;SDS011;61127;55.826;37.046;2023-04-15T05:12:05;4.80;;;1.40;;
70320;SDS011;61127;55.826;37.046;2023-04-15T05:14:32;4.90;;;1.60;;
70320;SDS011;61127;55.826;37.046;2023-04-15T05:16:59;3.27;;;1.30;;
70320;SDS011;61127;55.826;37.046;2023-04-15T05:19:26;6.75;;;1.10;;
70320;SDS011;61127;55.826;37.046;2023-04-15T05:21:52;5.38;;;1.50;;
70320;SDS011;61127;55.826;37.046;2023-04-15T05:24:19;2.80;;;1.20;;
70320;SDS011;61127;55.826;37.046;2023-04-15T05:26:46;3.20;;;1.23;;
70320;SDS011;61127;55.826;37.046;2023-04-15T05:29:13;4.83;;;1.40;;
70320;SDS011;61127;55.826;37.046;2023-04-15T05:31:40;3.53;;;1.13;;
70320;SDS011;61127;55.826;37.046;2023-04-15T05:34:07;3.75;;;1.33;;
70320;SDS011;61127;55.826;37.046;2023-04-15T05:36:33;6.57;;;1.30;;
70320;SDS011;61127;55.826;37.046;2023-04-15T05:39:01;2.97;;;1.40;;
70320;SDS011;61127;55.826;37.046;2023-04-15T05:41:27;3.20;;;1.13;;
70320;SDS011;61127;55.826;37.046;2023-04-15T05:43:54;5.90;;;1.73;;
70320;SDS011;61127;55.826;37.046;2023-04-15T05:46:21;2.85;;;1.17;;
70320;SDS011;61127;55.826;37.046;2023-04-15T05:48:48;2.60;;;1.30;;
70320;SDS011;61127;55.826;37.046;2023-04-15T05:51:15;2.05;;;1.05;;
70320;SDS011;61127;55.826;37.046;2023-04-15T05:53:42;3.97;;;1.30;;
70320;SDS011;61127;55.826;37.046;2023-04-15T05:56:09;3.50;;;1.42;;
70320;SDS011;61127;55.826;37.046;2023-04-15T05:58:36;3.63;;;1.27;;
70320;SDS011;61127;55.826;37.046;2023-04-15T06:01:02;6.85;;;1.38;;
70320;SDS011;61127;55.826;37.046;2023-04-15T06:03:29;4.72;;;1.48;;
70320;SDS011;61127;55.826;37.046;2023-04-15T06:05:56;4.77;;;1.40;;
70320;SDS011;61127;55.826;37.046;2023-04-15T06:08:23;4.88;;;1.52;;
70320;SDS011;61127;55.826;37.046;2023-04-15T06:10:50;5.85;;;1.42;;
70320;SDS011;61127;55.826;37.046;2023-04-15T06:13:16;10.43;;;1.75;;
70320;SDS011;61127;55.826;37.046;2023-04-15T06:15:43;4.55;;;1.60;;
70320;SDS011;61127;55.826;37.046;2023-04-15T06:18:10;5.37;;;1.30;;
70320;SDS011;61127;55.826;37.046;2023-04-15T06:20:37;2.63;;;1.30;;
70320;SDS011;61127;55.826;37.046;2023-04-15T06:23:04;4.03;;;1.23;;
70320;SDS011;61127;55.826;37.046;2023-04-15T06:25:30;5.25;;;1.45;;
70320;SDS011;61127;55.826;37.046;2023-04-15T06:27:58;3.78;;;1.70;;
70320;SDS011;61127;55.826;37.046;2023-04-15T06:30:24;8.13;;;1.87;;
70320;SDS011;61127;55.826;37.046;2023-04-15T06:32:51;4.40;;;1.17;;
70320;SDS011;61127;55.826;37.046;2023-04-15T06:35:18;4.50;;;1.80;;
70320;SDS011;61127;55.826;37.046;2023-04-15T06:37:45;3.90;;;1.40;;
70320;SDS011;61127;55.826;37.046;2023-04-15T06:40:12;3.88;;;1.40;;
70320;SDS011;61127;55.826;37.046;2023-04-15T06:42:39;7.30;;;1.57;;
70320;SDS011;61127;55.826;37.046;2023-04-15T06:45:06;4.40;;;1.45;;
70320;SDS011;61127;55.826;37.046;2023-04-15T06:47:34;6.13;;;1.67;;
70320;SDS011;61127;55.826;37.046;2023-04-15T06:50:00;3.78;;;1.52;;
70320;SDS011;61127;55.826;37.046;2023-04-15T06:52:27;8.63;;;1.65;;
70320;SDS011;61127;55.826;37.046;2023-04-15T06:54:54;5.37;;;1.53;;
70320;SDS011;61127;55.826;37.046;2023-04-15T06:57:21;4.93;;;1.55;;
70320;SDS011;61127;55.826;37.046;2023-04-15T06:59:48;4.45;;;1.33;;
70320;SDS011;61127;55.826;37.046;2023-04-15T07:02:15;4.82;;;1.20;;
70320;SDS011;61127;55.826;37.046;2023-04-15T07:04:41;4.90;;;1.60;;
70320;SDS011;61127;55.826;37.046;2023-04-15T07:07:08;4.77;;;1.43;;
70320;SDS011;61127;55.826;37.046;2023-04-15T07:09:35;9.30;;;2.25;;
70320;SDS011;61127;55.826;37.046;2023-04-15T07:12:02;4.40;;;1.73;;
70320;SDS011;61127;55.826;37.046;2023-04-15T07:14:29;5.28;;;1.67;;
70320;SDS011;61127;55.826;37.046;2023-04-15T07:16:55;3.83;;;1.63;;
70320;SDS011;61127;55.826;37.046;2023-04-15T07:19:23;6.37;;;1.90;;
70320;SDS011;61127;55.826;37.046;2023-04-15T07:21:49;3.80;;;1.52;;
70320;SDS011;61127;55.826;37.046;2023-04-15T07:24:16;4.53;;;1.80;;
70320;SDS011;61127;55.826;37.046;2023-04-15T07:26:48;6.50;;;2.20;;
70320;SDS011;61127;55.826;37.046;2023-04-15T07:29:15;8.50;;;2.03;;
70320;SDS011;61127;55.826;37.046;2023-04-15T07:31:42;3.83;;;2.00;;
70320;SDS011;61127;55.826;37.046;2023-04-15T07:34:08;5.07;;;1.70;;
70320;SDS011;61127;55.826;37.046;2023-04-15T07:36:36;7.90;;;2.08;;
70320;SDS011;61127;55.826;37.046;2023-04-15T07:39:02;5.75;;;1.88;;
70320;SDS011;61127;55.826;37.046;2023-04-15T07:41:29;6.53;;;1.90;;
70320;SDS011;61127;55.826;37.046;2023-04-15T07:43:57;5.90;;;1.87;;
70320;SDS011;61127;55.826;37.046;2023-04-15T07:46:24;5.00;;;1.80;;
70320;SDS011;61127;55.826;37.046;2023-04-15T07:48:52;6.13;;;1.50;;
70320;SDS011;61127;55.826;37.046;2023-04-15T07:51:20;8.80;;;2.00;;
70320;SDS011;61127;55.826;37.046;2023-04-15T07:53:48;2.88;;;1.40;;
70320;SDS011;61127;55.826;37.046;2023-04-15T07:56:18;5.43;;;1.40;;
70320;SDS011;61127;55.826;37.046;2023-04-15T07:58:45;4.75;;;1.40;;
70320;SDS011;61127;55.826;37.046;2023-04-15T08:01:12;7.30;;;1.70;;
70320;SDS011;61127;55.826;37.046;2023-04-15T08:03:38;6.22;;;1.70;;
70320;SDS011;61127;55.826;37.046;2023-04-15T08:06:05;7.80;;;1.63;;
70320;SDS011;61127;55.826;37.046;2023-04-15T08:08:32;4.17;;;1.23;;
70320;SDS011;61127;55.826;37.046;2023-04-15T08:10:59;5.53;;;1.42;;
70320;SDS011;61127;55.826;37.046;2023-04-15T08:13:26;7.25;;;1.70;;
70320;SDS011;61127;55.826;37.046;2023-04-15T08:16:13;5.00;;;1.55;;
70320;SDS011;61127;55.826;37.046;2023-04-15T08:18:40;5.57;;;1.70;;
70320;SDS011;61127;55.826;37.046;2023-04-15T08:21:07;8.43;;;2.10;;
70320;SDS011;61127;55.826;37.046;2023-04-15T08:23:34;9.63;;;2.50;;
70320;SDS011;61127;55.826;37.046;2023-04-15T08:26:01;9.02;;;2.00;;
70320;SDS011;61127;55.826;37.046;2023-04-15T08:28:28;5.10;;;1.50;;
70320;SDS011;61127;55.826;37.046;2023-04-15T08:30:55;5.55;;;2.05;;
70320;SDS011;61127;55.826;37.046;2023-04-15T08:33:22;5.03;;;1.60;;
70320;SDS011;61127;55.826;37.046;2023-04-15T08:35:49;5.35;;;1.60;;
70320;SDS011;61127;55.826;37.046;2023-04-15T08:38:16;11.48;;;3.03;;
70320;SDS011;61127;55.826;37.046;2023-04-15T08:40:44;4.60;;;1.70;;
70320;SDS011;61127;55.826;37.046;2023-04-15T08:43:16;4.55;;;1.92;;
70320;SDS011;61127;55.826;37.046;2023-04-15T08:45:44;2.77;;;1.40;;
70320;SDS011;61127;55.826;37.046;2023-04-15T08:48:13;8.32;;;2.80;;
70320;SDS011;61127;55.826;37.046;2023-04-15T08:50:42;4.55;;;1.67;;
70320;SDS011;61127;55.826;37.046;2023-04-15T08:53:09;6.28;;;1.90;;
70320;SDS011;61127;55.826;37.046;2023-04-15T08:55:39;8.30;;;1.95;;
70320;SDS011;61127;55.826;37.046;2023-04-15T08:58:06;11.57;;;5.17;;
70320;SDS011;61127;55.826;37.046;2023-04-15T09:00:34;3.63;;;2.03;;
70320;SDS011;61127;55.826;37.046;2023-04-15T09:03:01;4.15;;;1.52;;
70320;SDS011;61127;55.826;37.046;2023-04-15T09:05:30;6.57;;;1.90;;
70320;SDS011;61127;55.826;37.046;2023-04-15T09:07:58;4.32;;;1.90;;
70320;SDS011;61127;55.826;37.046;2023-04-15T09:10:24;6.40;;;1.60;;
70320;SDS011;61127;55.826;37.046;2023-04-15T09:12:51;4.85;;;1.70;;
70320;SDS011;61127;55.826;37.046;2023-04-15T09:15:18;8.13;;;1.88;;
70320;SDS011;61127;55.826;37.046;2023-04-15T09:17:45;4.70;;;2.15;;
70320;SDS011;61127;55.826;37.046;2023-04-15T09:20:13;5.75;;;2.20;;
70320;SDS011;61127;55.826;37.046;2023-04-15T09:22:40;6.27;;;1.73;;
70320;SDS011;61127;55.826;37.046;2023-04-15T09:27:47;6.60;;;2.22;;
70320;SDS011;61127;55.826;37.046;2023-04-15T09:30:14;7.90;;;2.00;;
70320;SDS011;61127;55.826;37.046;2023-04-15T09:32:51;5.53;;;2.10;;
70320;SDS011;61127;55.826;37.046;2023-04-15T09:35:19;4.70;;;1.70;;
70320;SDS011;61127;55.826;37.046;2023-04-15T09:37:47;5.45;;;1.90;;
70320;SDS011;61127;55.826;37.046;2023-04-15T09:40:17;9.90;;;2.30;;
70320;SDS011;61127;55.826;37.046;2023-04-15T09:42:56;4.78;;;2.05;;
70320;SDS011;61127;55.826;37.046;2023-04-15T09:45:23;11.63;;;2.13;;
70320;SDS011;61127;55.826;37.046;2023-04-15T09:47:51;9.90;;;2.40;;
70320;SDS011;61127;55.826;37.046;2023-04-15T09:50:18;4.68;;;1.88;;
70320;SDS011;61127;55.826;37.046;2023-04-15T09:52:45;6.15;;;2.60;;
70320;SDS011;61127;55.826;37.046;2023-04-15T09:55:12;5.13;;;2.22;;
70320;SDS011;61127;55.826;37.046;2023-04-15T09:57:39;6.68;;;2.47;;
70320;SDS011;61127;55.826;37.046;2023-04-15T10:00:07;9.43;;;2.10;;
70320;SDS011;61127;55.826;37.046;2023-04-15T10:02:37;4.40;;;1.90;;
70320;SDS011;61127;55.826;37.046;2023-04-15T10:05:05;6.75;;;2.03;;
70320;SDS011;61127;55.826;37.046;2023-04-15T10:07:32;7.65;;;1.80;;
70320;SDS011;61127;55.826;37.046;2023-04-15T10:10:00;6.57;;;2.45;;
70320;SDS011;61127;55.826;37.046;2023-04-15T10:12:30;6.07;;;1.80;;
70320;SDS011;61127;55.826;37.046;2023-04-15T10:15:00;4.22;;;1.98;;
70320;SDS011;61127;55.826;37.046;2023-04-15T10:17:31;3.25;;;1.90;;
70320;SDS011;61127;55.826;37.046;2023-04-15T10:20:03;4.15;;;1.75;;
70320;SDS011;61127;55.826;37.046;2023-04-15T10:22:31;4.00;;;1.60;;
70320;SDS011;61127;55.826;37.046;2023-04-15T10:24:58;3.80;;;1.80;;
70320;SDS011;61127;55.826;37.046;2023-04-15T10:27:28;4.65;;;1.92;;
70320;SDS011;61127;55.826;37.046;2023-04-15T10:29:55;9.63;;;2.00;;
70320;SDS011;61127;55.826;37.046;2023-04-15T10:32:23;8.55;;;2.38;;
70320;SDS011;61127;55.826;37.046;2023-04-15T10:34:50;8.27;;;2.45;;
70320;SDS011;61127;55.826;37.046;2023-04-15T10:37:22;6.70;;;2.53;;
70320;SDS011;61127;55.826;37.046;2023-04-15T10:39:58;5.82;;;2.17;;
70320;SDS011;61127;55.826;37.046;2023-04-15T10:42:32;7.30;;;2.15;;
70320;SDS011;61127;55.826;37.046;2023-04-15T10:44:59;9.32;;;2.25;;
70320;SDS011;61127;55.826;37.046;2023-04-15T10:47:25;5.57;;;2.22;;
70320;SDS011;61127;55.826;37.046;2023-04-15T10:49:56;7.70;;;2.20;;
70320;SDS011;61127;55.826;37.046;2023-04-15T10:52:24;9.38;;;2.38;;
70320;SDS011;61127;55.826;37.046;2023-04-15T10:55:35;4.13;;;1.95;;
70320;SDS011;61127;55.826;37.046;2023-04-15T10:57:42;4.22;;;1.90;;
70320;SDS011;61127;55.826;37.046;2023-04-15T11:05:06;5.38;;;2.13;;
70320;SDS011;61127;55.826;37.046;2023-04-15T11:12:44;6.20;;;2.15;;
70320;SDS011;61127;55.826;37.046;2023-04-15T11:17:50;10.32;;;2.08;;
70320;SDS011;61127;55.826;37.046;2023-04-15T11:20:17;5.70;;;2.20;;
70320;SDS011;61127;55.826;37.046;2023-04-15T11:22:51;3.83;;;2.10;;
70320;SDS011;61127;55.826;37.046;2023-04-15T11:25:21;7.78;;;1.98;;
70320;SDS011;61127;55.826;37.046;2023-04-15T11:27:49;8.90;;;2.77;;
70320;SDS011;61127;55.826;37.046;2023-04-15T11:32:49;7.95;;;2.50;;
70320;SDS011;61127;55.826;37.046;2023-04-15T11:35:16;5.57;;;2.08;;
70320;SDS011;61127;55.826;37.046;2023-04-15T11:37:44;8.35;;;2.60;;
70320;SDS011;61127;55.826;37.046;2023-04-15T11:40:11;5.60;;;2.13;;
70320;SDS011;61127;55.826;37.046;2023-04-15T11:42:39;7.75;;;2.60;;
70320;SDS011;61127;55.826;37.046;2023-04-15T11:45:09;4.97;;;2.40;;
70320;SDS011;61127;55.826;37.046;2023-04-15T11:47:37;9.07;;;2.63;;
70320;SDS011;61127;55.826;37.046;2023-04-15T11:52:55;5.57;;;1.93;;
70320;SDS011;61127;55.826;37.046;2023-04-15T11:55:21;7.15;;;2.20;;
70320;SDS011;61127;55.826;37.046;2023-04-15T11:57:49;5.15;;;2.30;;
70320;SDS011;61127;55.826;37.046;2023-04-15T12:00:15;6.47;;;2.60;;
70320;SDS011;61127;55.826;37.046;2023-04-15T12:02:41;7.82;;;2.65;;
70320;SDS011;61127;55.826;37.046;2023-04-15T12:05:07;6.13;;;2.50;;
70320;SDS011;61127;55.826;37.046;2023-04-15T12:07:55;5.18;;;2.20;;
70320;SDS011;61127;55.826;37.046;2023-04-15T12:10:19;7.25;;;2.33;;
70320;SDS011;61127;55.826;37.046;2023-04-15T12:12:47;9.70;;;2.30;;
70320;SDS011;61127;55.826;37.046;2023-04-15T12:15:13;5.68;;;2.20;;
70320;SDS011;61127;55.826;37.046;2023-04-15T12:17:39;5.43;;;2.17;;
70320;SDS011;61127;55.826;37.046;2023-04-15T12:20:04;7.00;;;2.47;;
70320;SDS011;61127;55.826;37.046;2023-04-15T12:22:30;8.73;;;2.90;;
70320;SDS011;61127;55.826;37.046;2023-04-15T12:25:01;6.13;;;2.70;;
70320;SDS011;61127;55.826;37.046;2023-04-15T12:27:30;7.35;;;2.78;;
70320;SDS011;61127;55.826;37.046;2023-04-15T12:30:03;6.20;;;2.80;;
70320;SDS011;61127;55.826;37.046;2023-04-15T12:32:33;6.65;;;2.40;;
70320;SDS011;61127;55.826;37.046;2023-04-15T12:34:59;6.45;;;2.50;;
70320;SDS011;61127;55.826;37.046;2023-04-15T12:37:25;7.20;;;2.83;;
70320;SDS011;61127;55.826;37.046;2023-04-15T12:39:51;10.52;;;2.85;;
70320;SDS011;61127;55.826;37.046;2023-04-15T12:42:18;8.55;;;2.40;;
70320;SDS011;61127;55.826;37.046;2023-04-15T12:44:44;5.82;;;2.25;;
70320;SDS011;61127;55.826;37.046;2023-04-15T12:47:10;15.10;;;2.40;;
70320;SDS011;61127;55.826;37.046;2023-04-15T12:49:36;4.10;;;2.38;;
70320;SDS011;61127;55.826;37.046;2023-04-15T12:52:02;9.37;;;2.73;;
70320;SDS011;61127;55.826;37.046;2023-04-15T12:54:31;12.52;;;3.15;;
70320;SDS011;61127;55.826;37.046;2023-04-15T12:56:57;10.13;;;3.00;;
70320;SDS011;61127;55.826;37.046;2023-04-15T12:59:23;6.28;;;2.60;;
70320;SDS011;61127;55.826;37.046;2023-04-15T13:01:50;6.90;;;2.63;;
70320;SDS011;61127;55.826;37.046;2023-04-15T13:04:16;6.17;;;2.43;;
70320;SDS011;61127;55.826;37.046;2023-04-15T13:06:42;7.93;;;2.80;;
70320;SDS011;61127;55.826;37.046;2023-04-15T13:09:08;6.30;;;2.55;;
70320;SDS011;61127;55.826;37.046;2023-04-15T13:11:33;7.07;;;2.80;;
70320;SDS011;61127;55.826;37.046;2023-04-15T13:14:00;7.63;;;2.75;;
70320;SDS011;61127;55.826;37.046;2023-04-15T13:16:26;7.80;;;2.80;;
70320;SDS011;61127;55.826;37.046;2023-04-15T13:18:52;9.73;;;3.03;;
70320;SDS011;61127;55.826;37.046;2023-04-15T13:21:18;9.35;;;3.20;;
70320;SDS011;61127;55.826;37.046;2023-04-15T13:23:43;6.93;;;3.03;;
70320;SDS011;61127;55.826;37.046;2023-04-15T13:26:09;7.22;;;2.78;;
70320;SDS011;61127;55.826;37.046;2023-04-15T13:28:35;5.00;;;2.45;;
70320;SDS011;61127;55.826;37.046;2023-04-15T13:31:01;5.73;;;2.70;;
70320;SDS011;61127;55.826;37.046;2023-04-15T13:33:27;7.40;;;3.08;;
70320;SDS011;61127;55.826;37.046;2023-04-15T13:35:52;8.23;;;2.60;;
70320;SDS011;61127;55.826;37.046;2023-04-15T13:38:18;10.10;;;2.85;;
70320;SDS011;61127;55.826;37.046;2023-04-15T13:40:43;7.03;;;2.60;;
70320;SDS011;61127;55.826;37.046;2023-04-15T13:43:09;5.28;;;2.53;;
70320;SDS011;61127;55.826;37.046;2023-04-15T13:45:35;6.03;;;2.50;;
70320;SDS011;61127;55.826;37.046;2023-04-15T13:48:01;7.95;;;2.55;;
70320;SDS011;61127;55.826;37.046;2023-04-15T13:50:27;6.87;;;2.40;;
70320;SDS011;61127;55.826;37.046;2023-04-15T13:52:53;9.93;;;3.10;;
70320;SDS011;61127;55.826;37.046;2023-04-15T13:55:18;7.05;;;2.75;;
70320;SDS011;61127;55.826;37.046;2023-04-15T13:57:45;6.33;;;2.70;;
70320;SDS011;61127;55.826;37.046;2023-04-15T14:00:11;6.10;;;2.90;;
70320;SDS011;61127;55.826;37.046;2023-04-15T14:02:38;5.68;;;2.85;;
70320;SDS011;61127;55.826;37.046;2023-04-15T14:05:04;8.57;;;2.70;;
70320;SDS011;61127;55.826;37.046;2023-04-15T14:07:30;8.27;;;3.17;;
70320;SDS011;61127;55.826;37.046;2023-04-15T14:09:55;10.03;;;3.17;;
70320;SDS011;61127;55.826;37.046;2023-04-15T14:12:21;6.35;;;3.10;;
70320;SDS011;61127;55.826;37.046;2023-04-15T14:14:46;10.23;;;3.00;;
70320;SDS011;61127;55.826;37.046;2023-04-15T14:17:12;13.80;;;3.00;;
70320;SDS011;61127;55.826;37.046;2023-04-15T14:19:38;7.13;;;3.27;;
70320;SDS011;61127;55.826;37.046;2023-04-15T14:22:03;6.75;;;2.90;;
70320;SDS011;61127;55.826;37.046;2023-04-15T14:24:29;8.33;;;3.20;;
70320;SDS011;61127;55.826;37.046;2023-04-15T14:26:55;10.83;;;3.37;;
70320;SDS011;61127;55.826;37.046;2023-04-15T14:29:21;12.30;;;2.90;;
70320;SDS011;61127;55.826;37.046;2023-04-15T14:31:47;6.20;;;2.60;;
70320;SDS011;61127;55.826;37.046;2023-04-15T14:34:14;10.52;;;3.00;;
70320;SDS011;61127;55.826;37.046;2023-04-15T14:36:40;11.57;;;3.40;;
70320;SDS011;61127;55.826;37.046;2023-04-15T14:39:06;6.80;;;2.90;;
70320;SDS011;61127;55.826;37.046;2023-04-15T14:41:32;7.03;;;2.65;;
70320;SDS011;61127;55.826;37.046;2023-04-15T14:43:58;10.55;;;2.45;;
70320;SDS011;61127;55.826;37.046;2023-04-15T14:46:24;8.70;;;2.60;;
70320;SDS011;61127;55.826;37.046;2023-04-15T14:48:50;8.93;;;3.25;;
70320;SDS011;61127;55.826;37.046;2023-04-15T14:51:16;7.43;;;2.60;;
70320;SDS011;61127;55.826;37.046;2023-04-15T14:53:41;8.50;;;2.30;;